createdAt,value
2018-12-05T00:00:50.914Z,0.00
2018-12-05T00:01:50.904Z,0.00
2018-12-05T00:02:50.893Z,0.00
2018-12-05T00:03:50.895Z,0.00
2018-12-05T00:04:50.872Z,0.00
2018-12-05T00:05:50.860Z,0.00
2018-12-05T00:06:50.853Z,0.00
2018-12-05T00:07:50.900Z,0.00
2018-12-05T00:08:50.847Z,0.00
2018-12-05T00:09:50.823Z,0.00
2018-12-05T00:10:50.815Z,0.00
2018-12-05T00:11:50.802Z,0.00
2018-12-05T00:12:50.794Z,0.00
2018-12-05T00:13:50.787Z,0.00
2018-12-05T00:14:50.774Z,0.00
2018-12-05T00:15:50.769Z,0.00
2018-12-05T00:16:50.754Z,0.00
2018-12-05T00:17:50.740Z,0.00
2018-12-05T00:18:50.734Z,0.00
2018-12-05T00:19:50.726Z,0.00
2018-12-05T00:20:50.712Z,0.00
2018-12-05T00:21:50.704Z,0.00
2018-12-05T00:22:50.694Z,0.00
2018-12-05T00:23:50.691Z,0.00
2018-12-05T00:24:50.678Z,0.00
2018-12-05T00:25:50.663Z,0.00
2018-12-05T00:26:50.655Z,0.00
2018-12-05T00:27:50.667Z,0.00
2018-12-05T00:28:50.637Z,0.00
2018-12-05T00:29:50.636Z,0.00
2018-12-05T00:30:50.616Z,0.00
2018-12-05T00:31:50.605Z,0.00
2018-12-05T00:32:50.674Z,0.00
2018-12-05T00:33:50.586Z,0.00
2018-12-05T00:34:50.575Z,0.00
2018-12-05T00:35:50.565Z,0.00
2018-12-05T00:36:50.560Z,0.00
2018-12-05T00:37:50.549Z,0.00
2018-12-05T00:38:50.538Z,0.00
2018-12-05T00:39:50.526Z,0.00
2018-12-05T00:40:50.517Z,0.00
2018-12-05T00:41:50.510Z,0.00
2018-12-05T00:42:50.513Z,0.00
2018-12-05T00:43:50.489Z,0.00
2018-12-05T00:44:50.477Z,0.00
2018-12-05T00:45:50.480Z,0.00
2018-12-05T00:46:50.458Z,0.00
2018-12-05T00:47:50.448Z,0.00
2018-12-05T00:48:50.461Z,0.00
2018-12-05T00:49:50.434Z,0.00
2018-12-05T00:50:50.419Z,0.00
2018-12-05T00:51:50.408Z,0.00
2018-12-05T00:52:50.409Z,0.00
2018-12-05T00:53:50.392Z,0.00
2018-12-05T00:54:50.380Z,0.00
2018-12-05T00:55:50.370Z,0.00
2018-12-05T00:56:50.360Z,0.00
2018-12-05T00:57:50.350Z,0.00
2018-12-05T00:58:50.349Z,0.00
2018-12-05T00:59:50.331Z,0.00
2018-12-05T01:00:50.393Z,0.00
2018-12-05T01:01:50.314Z,0.00
2018-12-05T01:02:50.301Z,0.00
2018-12-05T01:03:50.294Z,0.00
2018-12-05T01:04:50.283Z,0.00
2018-12-05T01:05:50.270Z,0.00
2018-12-05T01:06:50.262Z,0.00
2018-12-05T01:07:50.253Z,0.00
2018-12-05T01:08:50.243Z,0.00
2018-12-05T01:09:50.243Z,0.00
2018-12-05T01:10:50.221Z,0.00
2018-12-05T01:11:50.212Z,0.00
2018-12-05T01:12:50.219Z,0.00
2018-12-05T01:13:50.194Z,0.00
2018-12-05T01:14:50.182Z,0.00
2018-12-05T01:15:50.174Z,0.00
2018-12-05T01:16:50.165Z,0.00
2018-12-05T01:17:52.953Z,0.00
2018-12-05T01:18:50.145Z,0.00
2018-12-05T01:19:50.136Z,0.00
2018-12-05T01:20:50.128Z,0.00
2018-12-05T01:21:50.114Z,0.00
2018-12-05T01:22:50.106Z,0.00
2018-12-05T01:23:50.096Z,0.00
2018-12-05T01:24:50.093Z,0.00
2018-12-05T01:25:50.078Z,0.00
2018-12-05T01:26:50.066Z,0.00
2018-12-05T01:27:50.061Z,0.00
2018-12-05T01:28:50.048Z,0.00
2018-12-05T01:29:50.039Z,0.00
2018-12-05T01:30:50.027Z,0.00
2018-12-05T01:31:50.026Z,0.00
2018-12-05T01:32:50.007Z,0.00
2018-12-05T01:33:49.998Z,0.00
2018-12-05T01:34:49.990Z,0.00
2018-12-05T01:35:49.984Z,0.00
2018-12-05T01:36:49.970Z,0.00
2018-12-05T01:37:49.962Z,0.00
2018-12-05T01:38:49.951Z,0.00
2018-12-05T01:39:49.941Z,0.00
2018-12-05T01:40:49.932Z,0.00
2018-12-05T01:41:49.924Z,0.00
2018-12-05T01:42:49.909Z,0.00
2018-12-05T01:43:49.903Z,0.00
2018-12-05T01:44:49.889Z,0.00
2018-12-05T01:45:49.879Z,0.00
2018-12-05T01:46:49.868Z,0.00
2018-12-05T01:47:49.858Z,0.00
2018-12-05T01:48:49.860Z,0.00
2018-12-05T01:49:49.841Z,0.00
2018-12-05T01:50:49.832Z,0.00
2018-12-05T01:51:49.822Z,0.00
2018-12-05T01:52:49.813Z,0.00
2018-12-05T01:53:49.802Z,0.00
2018-12-05T01:54:49.802Z,0.00
2018-12-05T01:55:49.782Z,0.00
2018-12-05T01:56:49.772Z,0.00
2018-12-05T01:57:49.768Z,0.00
2018-12-05T01:58:49.750Z,0.00
2018-12-05T01:59:49.741Z,0.00
2018-12-05T02:00:49.731Z,0.00
2018-12-05T02:01:49.722Z,0.00
2018-12-05T02:02:49.711Z,0.00
2018-12-05T02:03:49.699Z,0.00
2018-12-05T02:04:49.690Z,0.00
2018-12-05T02:05:49.682Z,0.00
2018-12-05T02:06:49.673Z,0.00
2018-12-05T02:07:49.669Z,0.00
2018-12-05T02:08:49.655Z,0.00
2018-12-05T02:09:49.641Z,0.00
2018-12-05T02:10:49.634Z,0.00
2018-12-05T02:11:49.623Z,0.00
2018-12-05T02:12:49.617Z,0.00
2018-12-05T02:13:49.602Z,0.00
2018-12-05T02:14:49.596Z,0.00
2018-12-05T02:15:49.585Z,0.00
2018-12-05T02:16:49.574Z,0.00
2018-12-05T02:17:49.563Z,0.00
2018-12-05T02:18:49.555Z,0.00
2018-12-05T02:19:49.542Z,0.00
2018-12-05T02:20:49.546Z,0.00
2018-12-05T02:21:49.527Z,0.00
2018-12-05T02:22:49.529Z,0.00
2018-12-05T02:23:49.507Z,0.00
2018-12-05T02:24:49.500Z,0.00
2018-12-05T02:25:49.487Z,0.00
2018-12-05T02:26:49.476Z,0.00
2018-12-05T02:27:49.467Z,0.00
2018-12-05T02:28:49.456Z,0.00
2018-12-05T02:29:49.449Z,0.00
2018-12-05T02:30:49.437Z,0.00
2018-12-05T02:31:49.431Z,0.00
2018-12-05T02:32:49.418Z,0.00
2018-12-05T02:33:49.406Z,0.00
2018-12-05T02:34:49.398Z,0.00
2018-12-05T02:35:49.387Z,0.00
2018-12-05T02:36:49.378Z,0.00
2018-12-05T02:37:49.370Z,0.00
2018-12-05T02:38:49.359Z,0.00
2018-12-05T02:39:49.350Z,0.00
2018-12-05T02:40:49.342Z,0.00
2018-12-05T02:41:49.328Z,0.00
2018-12-05T02:42:49.320Z,0.00
2018-12-05T02:43:49.311Z,0.00
2018-12-05T02:44:49.308Z,0.00
2018-12-05T02:45:49.289Z,0.00
2018-12-05T02:46:49.291Z,0.00
2018-12-05T02:47:49.272Z,0.00
2018-12-05T02:48:49.264Z,0.00
2018-12-05T02:49:49.253Z,0.00
2018-12-05T02:50:49.241Z,0.00
2018-12-05T02:51:49.232Z,0.00
2018-12-05T02:52:49.223Z,0.00
2018-12-05T02:53:49.213Z,0.00
2018-12-05T02:54:49.217Z,0.00
2018-12-05T02:55:49.194Z,0.00
2018-12-05T02:56:49.183Z,0.00
2018-12-05T02:57:49.176Z,0.00
2018-12-05T02:58:49.164Z,0.00
2018-12-05T02:59:49.156Z,0.00
2018-12-05T03:00:49.145Z,0.00
2018-12-05T03:01:49.134Z,0.00
2018-12-05T03:02:49.126Z,0.00
2018-12-05T03:03:49.112Z,0.00
2018-12-05T03:04:49.108Z,0.00
2018-12-05T03:05:49.096Z,0.00
2018-12-05T03:06:49.087Z,0.00
2018-12-05T03:07:49.073Z,0.00
2018-12-05T03:08:49.063Z,0.00
2018-12-05T03:09:49.060Z,0.00
2018-12-05T03:10:49.045Z,0.00
2018-12-05T03:11:49.041Z,0.00
2018-12-05T03:12:49.025Z,0.00
2018-12-05T03:13:49.022Z,0.00
2018-12-05T03:14:49.003Z,0.00
2018-12-05T03:15:48.994Z,0.00
2018-12-05T03:16:48.985Z,0.00
2018-12-05T03:17:48.976Z,0.00
2018-12-05T03:18:48.966Z,0.00
2018-12-05T03:19:48.955Z,0.00
2018-12-05T03:20:48.944Z,0.00
2018-12-05T03:21:48.933Z,0.00
2018-12-05T03:22:48.923Z,0.00
2018-12-05T03:23:48.924Z,0.00
2018-12-05T03:24:48.903Z,0.00
2018-12-05T03:25:48.892Z,0.00
2018-12-05T03:26:48.881Z,0.00
2018-12-05T03:27:48.877Z,0.00
2018-12-05T03:28:48.866Z,0.00
2018-12-05T03:29:48.857Z,0.00
2018-12-05T03:30:48.844Z,0.00
2018-12-05T03:31:48.834Z,0.00
2018-12-05T03:32:48.862Z,0.00
2018-12-05T03:33:48.814Z,0.00
2018-12-05T03:34:48.829Z,0.00
2018-12-05T03:35:48.796Z,0.00
2018-12-05T03:36:48.787Z,0.00
2018-12-05T03:37:48.775Z,0.00
2018-12-05T03:38:48.764Z,0.00
2018-12-05T03:39:48.755Z,0.00
2018-12-05T03:40:48.744Z,0.00
2018-12-05T03:41:48.733Z,0.00
2018-12-05T03:42:48.723Z,0.00
2018-12-05T03:43:48.714Z,0.00
2018-12-05T03:44:48.710Z,0.00
2018-12-05T03:45:48.698Z,0.00
2018-12-05T03:46:48.681Z,0.00
2018-12-05T03:47:48.672Z,0.00
2018-12-05T03:48:48.665Z,0.00
2018-12-05T03:49:48.651Z,0.00
2018-12-05T03:50:48.660Z,0.00
2018-12-05T03:51:48.638Z,0.00
2018-12-05T03:52:48.623Z,0.00
2018-12-05T03:53:48.614Z,0.00
2018-12-05T03:54:48.603Z,0.00
2018-12-05T03:55:48.615Z,0.00
2018-12-05T03:56:48.582Z,0.00
2018-12-05T03:57:48.572Z,0.00
2018-12-05T03:58:48.566Z,0.00
2018-12-05T03:59:48.572Z,0.00
2018-12-05T04:00:48.543Z,0.00
2018-12-05T04:01:48.545Z,0.00
2018-12-05T04:02:48.523Z,0.00
2018-12-05T04:03:48.513Z,0.00
2018-12-05T04:04:48.504Z,0.00
2018-12-05T04:05:48.492Z,0.00
2018-12-05T04:06:48.482Z,0.00
2018-12-05T04:07:48.472Z,0.00
2018-12-05T04:08:48.459Z,0.00
2018-12-05T04:09:48.462Z,0.00
2018-12-05T04:10:48.438Z,0.00
2018-12-05T04:11:48.432Z,0.00
2018-12-05T04:12:48.423Z,0.00
2018-12-05T04:13:48.409Z,0.00
2018-12-05T04:14:48.399Z,0.00
2018-12-05T04:15:48.391Z,0.00
2018-12-05T04:16:48.380Z,0.00
2018-12-05T04:17:48.377Z,0.00
2018-12-05T04:18:48.360Z,0.00
2018-12-05T04:19:48.347Z,0.00
2018-12-05T04:20:48.340Z,0.00
2018-12-05T04:21:48.328Z,0.00
2018-12-05T04:22:48.316Z,0.00
2018-12-05T04:23:48.310Z,0.00
2018-12-05T04:24:48.299Z,0.00
2018-12-05T04:25:48.286Z,0.00
2018-12-05T04:26:48.278Z,0.00
2018-12-05T04:27:48.267Z,0.00
2018-12-05T04:28:48.259Z,0.00
2018-12-05T04:29:48.246Z,0.00
2018-12-05T04:30:48.241Z,0.00
2018-12-05T04:31:48.230Z,0.00
2018-12-05T04:32:48.217Z,0.00
2018-12-05T04:33:48.207Z,0.00
2018-12-05T04:34:48.197Z,0.00
2018-12-05T04:35:48.191Z,0.00
2018-12-05T04:36:48.178Z,0.00
2018-12-05T04:37:48.167Z,0.00
2018-12-05T04:38:48.171Z,0.00
2018-12-05T04:39:48.147Z,0.00
2018-12-05T04:40:48.135Z,0.00
2018-12-05T04:41:48.127Z,0.00
2018-12-05T04:42:48.116Z,0.00
2018-12-05T04:43:48.108Z,0.00
2018-12-05T04:44:48.123Z,0.00
2018-12-05T04:45:48.092Z,0.00
2018-12-05T04:46:48.073Z,0.00
2018-12-05T04:47:48.065Z,0.00
2018-12-05T04:48:48.053Z,0.00
2018-12-05T04:49:48.045Z,0.00
2018-12-05T04:50:48.034Z,0.00
2018-12-05T04:51:48.027Z,0.00
2018-12-05T04:52:48.012Z,0.00
2018-12-05T04:53:48.010Z,0.00
2018-12-05T04:54:47.992Z,0.00
2018-12-05T04:55:47.991Z,0.00
2018-12-05T04:56:47.970Z,0.00
2018-12-05T04:57:47.961Z,0.00
2018-12-05T04:58:47.950Z,0.00
2018-12-05T04:59:47.939Z,0.00
2018-12-05T05:00:47.931Z,0.00
2018-12-05T05:01:47.921Z,0.00
2018-12-05T05:02:47.921Z,0.00
2018-12-05T05:03:47.914Z,0.00
2018-12-05T05:04:47.892Z,0.00
2018-12-05T05:05:47.879Z,0.00
2018-12-05T05:06:47.868Z,0.00
2018-12-05T05:07:47.859Z,0.00
2018-12-05T05:08:47.850Z,0.00
2018-12-05T05:09:47.836Z,0.00
2018-12-05T05:10:47.829Z,0.00
2018-12-05T05:11:47.820Z,0.00
2018-12-05T05:12:47.807Z,0.00
2018-12-05T05:13:47.815Z,0.00
2018-12-05T05:14:47.785Z,0.00
2018-12-05T05:15:47.814Z,0.00
2018-12-05T05:16:47.766Z,0.00
2018-12-05T05:17:47.751Z,0.00
2018-12-05T05:18:47.741Z,0.00
2018-12-05T05:19:47.733Z,0.00
2018-12-05T05:20:47.722Z,0.00
2018-12-05T05:21:47.710Z,0.00
2018-12-05T05:22:47.704Z,0.00
2018-12-05T05:23:47.688Z,0.00
2018-12-05T05:24:47.677Z,0.00
2018-12-05T05:25:47.669Z,0.00
2018-12-05T05:26:47.681Z,0.00
2018-12-05T05:27:47.659Z,0.00
2018-12-05T05:45:01.317Z,0.00
2018-12-05T05:46:01.151Z,0.00
2018-12-05T05:47:54.520Z,0.00
2018-12-05T05:48:54.468Z,0.00
2018-12-05T05:49:54.471Z,0.00
2018-12-05T05:50:54.456Z,0.00
2018-12-05T05:51:54.458Z,0.00
2018-12-05T05:52:54.491Z,0.00
2018-12-05T05:53:54.400Z,0.00
2018-12-05T05:54:54.389Z,0.00
2018-12-05T05:55:54.378Z,0.00
2018-12-05T05:56:54.371Z,0.00
2018-12-05T05:57:54.352Z,0.00
2018-12-05T05:58:54.359Z,0.00
2018-12-05T05:59:54.325Z,0.00
2018-12-05T06:00:54.315Z,0.00
2018-12-05T06:01:54.302Z,0.00
2018-12-05T06:02:54.291Z,0.00
2018-12-05T06:03:54.287Z,0.00
2018-12-05T06:04:54.274Z,0.00
2018-12-05T06:05:54.407Z,0.00
2018-12-05T06:06:54.249Z,0.00
2018-12-05T06:07:54.236Z,0.00
2018-12-05T06:08:54.223Z,0.00
2018-12-05T06:09:54.214Z,0.00
2018-12-05T06:10:54.198Z,0.00
2018-12-05T06:11:54.193Z,0.00
2018-12-05T06:12:54.179Z,0.00
2018-12-05T06:13:54.166Z,0.00
2018-12-05T06:14:54.162Z,0.00
2018-12-05T06:15:54.145Z,0.00
2018-12-05T06:16:55.209Z,0.00
2018-12-05T06:17:54.140Z,0.00
2018-12-05T06:18:54.116Z,0.00
2018-12-05T06:19:54.102Z,0.00
2018-12-05T06:20:54.128Z,0.00
2018-12-05T06:21:54.182Z,0.00
2018-12-05T06:22:54.239Z,0.00
2018-12-05T06:23:54.126Z,0.00
2018-12-05T06:24:54.131Z,0.00
2018-12-05T06:25:54.190Z,0.00
2018-12-05T06:26:54.100Z,0.00
2018-12-05T06:27:54.013Z,0.00
2018-12-05T06:28:54.035Z,0.00
2018-12-05T06:29:53.992Z,0.00
2018-12-05T06:30:53.986Z,0.00
2018-12-05T06:31:53.978Z,0.00
2018-12-05T06:32:53.957Z,0.00
2018-12-05T06:33:53.951Z,0.00
2018-12-05T06:34:53.945Z,0.00
2018-12-05T06:35:53.953Z,0.00
2018-12-05T06:36:53.915Z,0.00
2018-12-05T06:37:53.906Z,0.00
2018-12-05T06:38:53.892Z,0.00
2018-12-05T06:39:53.912Z,0.00
2018-12-05T06:40:53.887Z,0.00
2018-12-05T06:41:53.865Z,0.00
2018-12-05T06:42:53.852Z,0.00
2018-12-05T06:43:53.838Z,0.00
2018-12-05T06:44:53.833Z,0.00
2018-12-05T06:45:53.817Z,0.00
2018-12-05T06:46:53.817Z,0.00
2018-12-05T06:47:53.807Z,0.00
2018-12-05T06:48:53.786Z,0.00
2018-12-05T06:49:53.780Z,0.00
2018-12-05T06:50:53.764Z,0.00
2018-12-05T06:51:53.761Z,0.00
2018-12-05T06:52:53.755Z,0.00
2018-12-05T06:53:53.731Z,0.00
2018-12-05T06:54:53.726Z,0.00
2018-12-05T06:55:53.713Z,0.00
2018-12-05T06:56:53.700Z,5.63
2018-12-05T06:57:53.693Z,5.63
2018-12-05T06:58:53.678Z,5.63
2018-12-05T06:59:53.669Z,5.63
2018-12-05T07:00:53.660Z,5.63
2018-12-05T07:01:53.648Z,5.63
2018-12-05T07:02:53.638Z,5.63
2018-12-05T07:03:53.623Z,5.63
2018-12-05T07:04:53.617Z,5.63
2018-12-05T07:05:53.622Z,5.63
2018-12-05T07:06:53.612Z,5.63
2018-12-05T07:07:53.579Z,11.25
2018-12-05T07:08:53.617Z,11.25
2018-12-05T07:09:53.559Z,11.25
2018-12-05T07:10:53.557Z,11.25
2018-12-05T07:11:53.535Z,11.25
2018-12-05T07:12:53.523Z,11.25
2018-12-05T07:13:53.518Z,11.25
2018-12-05T07:14:53.506Z,16.88
2018-12-05T07:15:53.493Z,16.88
2018-12-05T07:16:53.479Z,16.88
2018-12-05T07:17:53.474Z,16.88
2018-12-05T07:18:53.460Z,16.88
2018-12-05T07:19:53.450Z,16.88
2018-12-05T07:20:53.447Z,22.50
2018-12-05T07:21:53.430Z,22.50
2018-12-05T07:22:53.416Z,22.50
2018-12-05T07:23:53.407Z,22.50
2018-12-05T07:24:53.396Z,22.50
2018-12-05T07:25:53.384Z,22.50
2018-12-05T07:26:53.378Z,28.13
2018-12-05T07:27:53.372Z,28.13
2018-12-05T07:28:53.354Z,28.13
2018-12-05T07:29:53.342Z,28.13
2018-12-05T07:30:53.336Z,28.13
2018-12-05T07:31:53.370Z,33.75
2018-12-05T07:32:53.318Z,33.75
2018-12-05T07:33:53.301Z,33.75
2018-12-05T07:34:53.291Z,39.38
2018-12-05T07:35:53.278Z,39.38
2018-12-05T07:36:53.267Z,39.38
2018-12-05T07:37:53.261Z,39.38
2018-12-05T07:38:53.266Z,39.38
2018-12-05T07:39:53.253Z,39.38
2018-12-05T07:40:53.226Z,45.00
2018-12-05T07:41:53.215Z,45.00
2018-12-05T07:42:53.206Z,45.00
2018-12-05T07:43:53.197Z,45.00
2018-12-05T07:44:53.183Z,45.00
2018-12-05T07:45:53.174Z,45.00
2018-12-05T07:46:53.181Z,45.00
2018-12-05T07:47:53.152Z,45.00
2018-12-05T07:48:53.139Z,45.00
2018-12-05T07:49:53.129Z,45.00
2018-12-05T07:50:53.124Z,50.63
2018-12-05T07:51:53.108Z,50.63
2018-12-05T07:52:53.098Z,50.63
2018-12-05T07:53:53.087Z,45.00
2018-12-05T07:54:53.095Z,50.63
2018-12-05T07:55:53.085Z,50.63
2018-12-05T07:56:53.068Z,50.63
2018-12-05T07:57:53.048Z,56.25
2018-12-05T07:58:53.037Z,61.88
2018-12-05T07:59:53.029Z,61.88
2018-12-05T08:00:53.016Z,67.50
2018-12-05T08:01:54.548Z,67.50
2018-12-05T08:02:52.999Z,67.50
2018-12-05T08:03:52.995Z,67.50
2018-12-05T08:04:52.974Z,67.50
2018-12-05T08:05:52.996Z,67.50
2018-12-05T08:06:52.955Z,67.50
2018-12-05T08:07:52.949Z,73.13
2018-12-05T08:08:52.937Z,73.13
2018-12-05T08:09:52.927Z,78.75
2018-12-05T08:10:52.928Z,78.75
2018-12-05T08:11:52.924Z,78.75
2018-12-05T08:12:52.892Z,84.38
2018-12-05T08:13:52.882Z,84.38
2018-12-05T08:14:52.874Z,84.38
2018-12-05T08:15:52.870Z,90.00
2018-12-05T08:16:52.858Z,90.00
2018-12-05T08:17:52.846Z,95.63
2018-12-05T08:18:52.867Z,90.00
2018-12-05T08:19:52.831Z,95.63
2018-12-05T08:20:52.867Z,90.00
2018-12-05T08:21:52.807Z,106.88
2018-12-05T08:22:52.813Z,106.88
2018-12-05T08:23:52.792Z,106.88
2018-12-05T08:24:52.785Z,106.88
2018-12-05T08:25:52.772Z,118.13
2018-12-05T08:26:52.762Z,118.13
2018-12-05T08:27:52.763Z,106.88
2018-12-05T08:28:52.751Z,101.25
2018-12-05T08:29:52.738Z,106.88
2018-12-05T08:30:52.725Z,112.50
2018-12-05T08:31:52.713Z,118.13
2018-12-05T08:32:52.708Z,112.50
2018-12-05T08:33:52.698Z,118.13
2018-12-05T08:34:52.687Z,123.75
2018-12-05T08:35:52.679Z,135.00
2018-12-05T08:36:52.683Z,140.63
2018-12-05T08:37:52.660Z,140.63
2018-12-05T08:38:52.649Z,140.63
2018-12-05T08:39:52.643Z,135.00
2018-12-05T08:40:52.632Z,146.25
2018-12-05T08:41:52.629Z,140.63
2018-12-05T08:42:52.617Z,146.25
2018-12-05T08:43:52.606Z,298.13
2018-12-05T08:44:52.598Z,225.00
2018-12-05T08:45:52.600Z,337.50
2018-12-05T08:46:52.581Z,399.38
2018-12-05T08:47:52.575Z,500.63
2018-12-05T08:48:52.564Z,511.88
2018-12-05T08:49:52.562Z,590.63
2018-12-05T08:50:52.553Z,585.00
2018-12-05T08:51:52.546Z,669.38
2018-12-05T08:52:52.557Z,787.50
2018-12-05T08:53:52.530Z,495.00
2018-12-05T08:54:52.540Z,500.63
2018-12-05T08:55:52.523Z,781.88
2018-12-05T08:56:52.538Z,607.50
2018-12-05T08:57:52.525Z,461.25
2018-12-05T08:58:52.509Z,399.38
2018-12-05T08:59:52.583Z,343.13
2018-12-05T09:00:52.497Z,472.50
2018-12-05T09:01:52.517Z,691.88
2018-12-05T09:02:52.490Z,843.75
2018-12-05T09:03:52.486Z,748.13
2018-12-05T09:04:52.488Z,534.38
2018-12-05T09:05:52.478Z,511.88
2018-12-05T09:06:52.477Z,635.63
2018-12-05T09:07:52.492Z,590.63
2018-12-05T09:08:52.489Z,382.50
2018-12-05T09:09:52.470Z,410.63
2018-12-05T09:10:52.470Z,697.50
2018-12-05T09:11:52.469Z,1344.38
2018-12-05T09:12:52.467Z,1192.50
2018-12-05T09:13:52.462Z,1558.13
2018-12-05T09:14:52.470Z,2103.75
2018-12-05T09:15:52.542Z,2210.63
2018-12-05T09:16:52.480Z,2109.38
2018-12-05T09:17:52.474Z,1918.13
2018-12-05T09:18:52.461Z,2458.13
2018-12-05T09:19:52.458Z,2784.38
2018-12-05T09:20:52.493Z,2593.13
2018-12-05T09:21:52.460Z,2711.25
2018-12-05T09:22:52.463Z,2739.38
2018-12-05T09:23:52.462Z,2835.00
2018-12-05T09:24:52.464Z,2598.75
2018-12-05T09:25:52.469Z,2486.25
2018-12-05T09:26:52.493Z,2250.00
2018-12-05T09:27:52.482Z,2401.88
2018-12-05T09:28:57.227Z,2463.75
2018-12-05T09:29:52.480Z,2784.38
2018-12-05T09:30:52.484Z,2947.50
2018-12-05T09:31:52.491Z,3048.75
2018-12-05T09:32:52.488Z,3121.88
2018-12-05T09:33:52.523Z,3009.38
2018-12-05T09:34:52.498Z,2925.00
2018-12-05T09:35:52.507Z,2975.63
2018-12-05T09:36:52.516Z,3037.50
2018-12-05T09:37:52.513Z,2902.50
2018-12-05T09:38:52.522Z,3031.88
2018-12-05T09:39:52.526Z,3172.50
2018-12-05T09:40:52.532Z,3189.38
2018-12-05T09:41:52.540Z,3178.13
2018-12-05T09:42:52.544Z,3110.63
2018-12-05T09:43:52.549Z,3099.38
2018-12-05T09:44:52.553Z,3178.13
2018-12-05T09:45:52.561Z,3076.88
2018-12-05T09:46:52.566Z,3088.13
2018-12-05T09:47:52.575Z,3099.38
2018-12-05T09:48:52.587Z,2863.13
2018-12-05T09:49:52.586Z,2930.63
2018-12-05T09:50:52.595Z,2536.88
2018-12-05T09:51:52.611Z,2407.50
2018-12-05T09:52:52.609Z,3071.25
2018-12-05T09:53:53.563Z,3442.50
2018-12-05T09:54:52.642Z,3391.88
2018-12-05T09:55:52.626Z,2925.00
2018-12-05T09:56:52.633Z,3380.63
2018-12-05T09:57:52.641Z,3420.00
2018-12-05T09:58:53.071Z,3330.00
2018-12-05T09:59:52.656Z,3346.88
2018-12-05T10:00:52.668Z,3442.50
2018-12-05T10:01:52.672Z,3515.63
2018-12-05T10:02:52.678Z,3420.00
2018-12-05T10:03:52.687Z,3217.50
2018-12-05T10:04:52.694Z,2986.88
2018-12-05T10:05:52.702Z,3290.63
2018-12-05T10:06:52.709Z,3425.63
2018-12-05T10:07:52.717Z,3510.00
2018-12-05T10:08:52.723Z,3481.88
2018-12-05T10:09:52.737Z,3448.13
2018-12-05T10:10:52.738Z,3436.88
2018-12-05T10:11:52.748Z,3296.25
2018-12-05T10:12:52.756Z,3403.13
2018-12-05T10:13:52.762Z,3386.25
2018-12-05T10:14:52.772Z,3408.75
2018-12-05T10:15:52.779Z,3436.88
2018-12-05T10:16:52.788Z,3538.13
2018-12-05T10:17:52.795Z,3543.75
2018-12-05T10:18:52.812Z,3470.63
2018-12-05T10:19:52.811Z,3431.25
2018-12-05T10:20:55.945Z,3161.25
2018-12-05T10:21:52.828Z,3138.75
2018-12-05T10:22:52.835Z,3195.00
2018-12-05T10:23:52.844Z,3363.75
2018-12-05T10:24:52.859Z,3346.88
2018-12-05T10:25:52.859Z,3150.00
2018-12-05T10:26:52.868Z,3127.50
2018-12-05T10:27:52.875Z,3296.25
2018-12-05T10:28:52.888Z,3408.75
2018-12-05T10:29:52.892Z,3397.50
2018-12-05T10:30:52.898Z,3380.63
2018-12-05T10:31:52.909Z,3363.75
2018-12-05T10:32:52.920Z,3358.13
2018-12-05T10:33:52.924Z,3408.75
2018-12-05T10:34:52.932Z,3290.63
2018-12-05T10:35:52.940Z,3206.25
2018-12-05T10:36:52.947Z,3223.13
2018-12-05T10:37:54.457Z,3026.25
2018-12-05T10:38:52.965Z,3054.38
2018-12-05T10:39:52.975Z,2964.38
2018-12-05T10:40:52.983Z,2362.50
2018-12-05T10:41:52.989Z,1513.13
2018-12-05T10:42:52.998Z,596.25
2018-12-05T10:43:53.001Z,298.13
2018-12-05T10:44:53.014Z,258.75
2018-12-05T10:45:53.016Z,230.63
2018-12-05T10:46:53.022Z,213.75
2018-12-05T10:47:53.033Z,208.13
2018-12-05T10:48:53.038Z,202.50
2018-12-05T10:49:53.043Z,196.88
2018-12-05T10:50:53.050Z,196.88
2018-12-05T10:51:53.051Z,202.50
2018-12-05T10:52:53.059Z,196.88
2018-12-05T10:53:53.068Z,202.50
2018-12-05T10:54:53.108Z,174.38
2018-12-05T10:55:53.069Z,185.63
2018-12-05T10:56:53.072Z,202.50
2018-12-05T10:57:53.075Z,202.50
2018-12-05T10:58:53.078Z,202.50
2018-12-05T10:59:53.083Z,202.50
2018-12-05T11:00:53.085Z,196.88
2018-12-05T11:01:53.090Z,196.88
2018-12-05T11:02:53.087Z,196.88
2018-12-05T11:03:53.095Z,185.63
2018-12-05T11:04:53.091Z,191.25
2018-12-05T11:05:53.093Z,185.63
2018-12-05T11:06:53.095Z,191.25
2018-12-05T11:07:53.096Z,191.25
2018-12-05T11:08:53.094Z,196.88
2018-12-05T11:09:53.095Z,196.88
2018-12-05T11:10:53.096Z,185.63
2018-12-05T11:11:53.096Z,174.38
2018-12-05T11:12:53.094Z,180.00
2018-12-05T11:13:53.099Z,191.25
2018-12-05T11:14:53.094Z,191.25
2018-12-05T11:15:53.094Z,196.88
2018-12-05T11:16:53.094Z,196.88
2018-12-05T11:17:53.092Z,191.25
2018-12-05T11:18:53.098Z,185.63
2018-12-05T11:19:53.090Z,185.63
2018-12-05T11:20:53.092Z,185.63
2018-12-05T11:21:53.086Z,191.25
2018-12-05T11:22:53.084Z,185.63
2018-12-05T11:23:53.084Z,180.00
2018-12-05T11:24:53.081Z,174.38
2018-12-05T11:25:53.077Z,163.13
2018-12-05T11:26:53.076Z,180.00
2018-12-05T11:27:53.076Z,168.75
2018-12-05T11:28:53.072Z,168.75
2018-12-05T11:29:53.072Z,180.00
2018-12-05T11:30:53.068Z,191.25
2018-12-05T11:31:53.068Z,185.63
2018-12-05T11:32:53.064Z,191.25
2018-12-05T11:33:53.066Z,185.63
2018-12-05T11:34:53.061Z,191.25
2018-12-05T11:35:53.057Z,185.63
2018-12-05T11:36:53.054Z,174.38
2018-12-05T11:37:53.051Z,163.13
2018-12-05T11:38:53.048Z,157.50
2018-12-05T11:39:53.048Z,146.25
2018-12-05T11:40:53.047Z,151.88
2018-12-05T11:41:53.054Z,151.88
2018-12-05T11:42:53.038Z,146.25
2018-12-05T11:43:53.035Z,135.00
2018-12-05T11:44:53.031Z,140.63
2018-12-05T11:45:53.029Z,146.25
2018-12-05T11:46:53.031Z,146.25
2018-12-05T11:47:53.022Z,140.63
2018-12-05T11:48:53.018Z,140.63
2018-12-05T11:49:53.016Z,135.00
2018-12-05T11:50:53.013Z,135.00
2018-12-05T11:51:53.013Z,129.38
2018-12-05T11:52:53.004Z,129.38
2018-12-05T11:53:53.001Z,129.38
2018-12-05T11:54:52.999Z,123.75
2018-12-05T11:55:52.993Z,129.38
2018-12-05T11:56:52.992Z,129.38
2018-12-05T11:57:52.989Z,129.38
2018-12-05T11:58:52.984Z,123.75
2018-12-05T11:59:52.979Z,123.75
2018-12-05T12:00:52.975Z,129.38
2018-12-05T12:01:52.971Z,129.38
2018-12-05T12:02:52.969Z,135.00
2018-12-05T12:03:52.962Z,135.00
2018-12-05T12:04:52.962Z,135.00
2018-12-05T12:05:52.956Z,135.00
2018-12-05T12:06:52.962Z,135.00
2018-12-05T12:07:52.948Z,129.38
2018-12-05T12:08:52.942Z,123.75
2018-12-05T12:09:52.946Z,118.13
2018-12-05T12:10:52.937Z,112.50
2018-12-05T12:11:52.930Z,106.88
2018-12-05T12:12:52.927Z,106.88
2018-12-05T12:13:52.922Z,101.25
2018-12-05T12:14:52.917Z,95.63
2018-12-05T12:15:52.914Z,90.00
2018-12-05T12:16:52.908Z,90.00
2018-12-05T12:17:52.906Z,95.63
2018-12-05T12:18:52.903Z,101.25
2018-12-05T12:19:52.903Z,101.25
2018-12-05T12:20:52.895Z,106.88
2018-12-05T12:21:52.889Z,106.88
2018-12-05T12:22:52.884Z,106.88
2018-12-05T12:23:53.341Z,106.88
2018-12-05T12:24:52.877Z,112.50
2018-12-05T12:25:52.872Z,106.88
2018-12-05T12:26:52.867Z,106.88
2018-12-05T12:27:52.862Z,106.88
2018-12-05T12:28:52.856Z,106.88
2018-12-05T12:29:52.855Z,106.88
2018-12-05T12:30:52.848Z,106.88
2018-12-05T12:31:52.846Z,106.88
2018-12-05T12:32:52.843Z,101.25
2018-12-05T12:33:52.838Z,101.25
2018-12-05T12:34:52.832Z,101.25
2018-12-05T12:35:52.827Z,101.25
2018-12-05T12:36:52.821Z,95.63
2018-12-05T12:37:52.820Z,95.63
2018-12-05T12:38:52.834Z,95.63
2018-12-05T12:39:52.811Z,95.63
2018-12-05T12:40:52.809Z,95.63
2018-12-05T12:41:52.801Z,90.00
2018-12-05T12:42:52.799Z,90.00
2018-12-05T12:43:52.793Z,90.00
2018-12-05T12:44:52.788Z,90.00
2018-12-05T12:45:52.786Z,90.00
2018-12-05T12:46:52.785Z,90.00
2018-12-05T12:47:52.776Z,90.00
2018-12-05T12:48:52.769Z,84.38
2018-12-05T12:49:52.766Z,84.38
2018-12-05T12:50:52.778Z,84.38
2018-12-05T12:51:52.759Z,78.75
2018-12-05T12:52:52.754Z,78.75
2018-12-05T12:53:52.748Z,78.75
2018-12-05T12:54:52.781Z,78.75
2018-12-05T12:55:52.745Z,78.75
2018-12-05T12:56:52.741Z,78.75
2018-12-05T12:57:52.731Z,73.13
2018-12-05T12:58:52.723Z,73.13
2018-12-05T12:59:52.725Z,73.13
2018-12-05T13:00:52.713Z,73.13
2018-12-05T13:01:52.711Z,67.50
2018-12-05T13:02:52.720Z,67.50
2018-12-05T13:03:52.714Z,67.50
2018-12-05T13:04:52.698Z,73.13
2018-12-05T13:05:52.696Z,73.13
2018-12-05T13:06:52.696Z,73.13
2018-12-05T13:07:52.830Z,73.13
2018-12-05T13:08:52.679Z,73.13
2018-12-05T13:09:52.671Z,73.13
2018-12-05T13:10:52.667Z,73.13
2018-12-05T13:11:52.661Z,67.50